createdAt,value
2018-06-23T00:01:26.800Z,84.19
2018-06-23T00:03:55.520Z,84.26
2018-06-23T00:06:24.138Z,83.30
2018-06-23T00:08:52.780Z,83.00
2018-06-23T00:11:21.383Z,81.71
2018-06-23T00:13:50.003Z,82.02
2018-06-23T00:16:18.615Z,82.67
2018-06-23T00:18:47.190Z,82.57
2018-06-23T00:21:15.787Z,82.15
2018-06-23T00:23:44.388Z,82.36
2018-06-23T00:26:18.307Z,82.68
2018-06-23T00:28:46.867Z,82.22
2018-06-23T00:31:15.496Z,81.33
2018-06-23T00:33:44.099Z,81.32
2018-06-23T00:36:12.718Z,80.26
2018-06-23T00:38:41.340Z,80.74
2018-06-23T00:41:09.932Z,80.74
2018-06-23T00:43:38.491Z,79.92
2018-06-23T00:46:07.151Z,80.05
2018-06-23T00:48:35.851Z,79.69
2018-06-23T00:51:04.435Z,79.74
2018-06-23T00:53:33.032Z,80.08
2018-06-23T00:56:01.899Z,79.34
2018-06-23T00:58:37.179Z,78.80
2018-06-23T01:01:05.818Z,78.60
2018-06-23T01:03:34.464Z,79.42
2018-06-23T01:06:03.154Z,80.33
2018-06-23T01:08:31.779Z,82.22
2018-06-23T01:11:00.363Z,82.31
2018-06-23T01:13:29.010Z,82.08
2018-06-23T01:15:57.609Z,82.81
2018-06-23T01:18:26.191Z,84.13
2018-06-23T01:20:54.795Z,83.73
2018-06-23T01:23:23.344Z,83.85
2018-06-23T01:25:51.923Z,83.51
2018-06-23T01:28:20.622Z,84.10
2018-06-23T01:30:49.227Z,83.83
2018-06-23T01:33:17.798Z,83.40
2018-06-23T01:35:46.455Z,84.03
2018-06-23T01:38:15.063Z,84.04
2018-06-23T01:40:43.642Z,83.37
2018-06-23T01:43:12.224Z,84.63
2018-06-23T01:45:40.830Z,83.58
2018-06-23T01:48:09.446Z,82.85
2018-06-23T01:50:38.010Z,83.24
2018-06-23T01:53:06.644Z,82.87
2018-06-23T01:55:35.252Z,82.89
2018-06-23T01:58:03.912Z,82.37
2018-06-23T02:00:32.542Z,82.18
2018-06-23T02:03:01.204Z,81.51
2018-06-23T02:05:29.824Z,80.74
2018-06-23T02:07:58.406Z,80.47
2018-06-23T02:10:27.006Z,80.84
2018-06-23T02:12:55.634Z,81.03
2018-06-23T02:16:33.523Z,81.30
2018-06-23T02:19:07.657Z,79.24
2018-06-23T02:21:41.629Z,79.54
2018-06-23T02:24:15.489Z,79.70
2018-06-23T02:26:49.203Z,79.94
2018-06-23T02:29:23.023Z,79.40
2018-06-23T02:31:56.851Z,78.64
2018-06-23T02:34:30.725Z,79.05
2018-06-23T02:36:59.415Z,78.93
2018-06-23T02:39:28.013Z,79.15
2018-06-23T02:41:56.597Z,79.38
2018-06-23T02:44:25.194Z,79.12
2018-06-23T02:46:53.806Z,79.37
2018-06-23T02:49:22.606Z,79.93
2018-06-23T02:51:51.182Z,79.13
2018-06-23T02:54:19.784Z,79.68
2018-06-23T02:56:48.670Z,79.36
2018-06-23T02:59:19.433Z,79.63
2018-06-23T03:01:49.236Z,79.61
2018-06-23T03:04:18.465Z,78.84
2018-06-23T03:06:47.067Z,79.55
2018-06-23T03:09:15.641Z,78.65
2018-06-23T03:11:44.233Z,79.61
2018-06-23T03:14:12.811Z,79.85
2018-06-23T03:16:41.400Z,80.19
2018-06-23T03:19:10.010Z,80.68
2018-06-23T03:21:38.601Z,80.88
2018-06-23T03:24:07.203Z,81.57
2018-06-23T03:26:35.770Z,80.05
2018-06-23T03:29:04.525Z,80.02
2018-06-23T03:31:33.202Z,80.42
2018-06-23T03:34:01.806Z,81.45
2018-06-23T03:36:30.410Z,81.52
2018-06-23T03:38:59.022Z,80.69
2018-06-23T03:41:27.615Z,81.13
2018-06-23T03:43:56.174Z,81.19
2018-06-23T03:46:24.765Z,81.50
2018-06-23T03:48:53.356Z,81.38
2018-06-23T03:51:21.995Z,81.90
2018-06-23T03:53:50.621Z,81.65
2018-06-23T03:56:19.242Z,81.35
2018-06-23T03:58:47.874Z,81.47
2018-06-23T04:01:16.465Z,80.90
2018-06-23T04:03:45.088Z,79.62
2018-06-23T04:06:13.723Z,79.58
2018-06-23T04:08:42.336Z,79.30
2018-06-23T04:11:11.030Z,80.29
2018-06-23T04:13:39.665Z,80.15
2018-06-23T04:16:08.302Z,79.45
2018-06-23T04:18:36.909Z,78.20
2018-06-23T04:21:05.590Z,78.99
2018-06-23T04:23:34.155Z,79.40
2018-06-23T04:26:02.788Z,77.92
2018-06-23T04:28:31.394Z,78.63
2018-06-23T04:31:00.927Z,78.06
2018-06-23T04:33:29.499Z,76.70
2018-06-23T04:35:58.071Z,76.18
2018-06-23T04:38:26.694Z,75.91
2018-06-23T04:40:55.302Z,75.13
2018-06-23T04:43:23.955Z,74.96
2018-06-23T04:45:52.552Z,74.09
2018-06-23T04:48:21.155Z,74.18
2018-06-23T04:50:50.634Z,74.57
2018-06-23T04:53:19.577Z,73.78
2018-06-23T04:55:49.993Z,73.44
2018-06-23T04:58:18.561Z,73.46
2018-06-23T05:00:47.168Z,74.67
2018-06-23T05:03:15.837Z,75.22
2018-06-23T05:05:44.483Z,76.54
2018-06-23T05:08:13.060Z,76.88
2018-06-23T05:10:41.655Z,77.39
2018-06-23T05:13:10.264Z,76.73
2018-06-23T05:15:38.911Z,76.70
2018-06-23T05:18:07.476Z,77.20
2018-06-23T05:20:36.190Z,76.95
2018-06-23T05:23:04.809Z,78.25
2018-06-23T05:25:33.399Z,77.00
2018-06-23T05:28:02.118Z,78.12
2018-06-23T05:30:30.789Z,78.44
2018-06-23T05:32:59.434Z,79.12
2018-06-23T05:35:28.053Z,81.04
2018-06-23T05:37:56.727Z,80.33
2018-06-23T05:40:25.334Z,82.57
2018-06-23T05:42:54.002Z,82.69
2018-06-23T05:45:22.650Z,83.39
2018-06-23T05:47:51.311Z,83.41
2018-06-23T05:50:19.993Z,83.61
2018-06-23T05:52:48.667Z,84.14
2018-06-23T05:55:17.262Z,85.54
2018-06-23T05:57:45.907Z,85.74
2018-06-23T06:00:14.527Z,86.42
2018-06-23T06:02:43.199Z,87.13
2018-06-23T06:05:11.834Z,87.78
2018-06-23T06:07:40.457Z,89.14
2018-06-23T06:10:09.104Z,88.76
2018-06-23T06:12:37.722Z,88.91
2018-06-23T06:15:06.497Z,88.48
2018-06-23T06:17:36.366Z,89.30
2018-06-23T06:20:06.701Z,91.10
2018-06-23T06:22:39.493Z,92.69
2018-06-23T06:25:08.819Z,93.56
2018-06-23T06:27:37.514Z,93.89
2018-06-23T06:30:07.274Z,94.86
2018-06-23T06:32:36.183Z,95.88
2018-06-23T06:35:05.161Z,96.83
2018-06-23T06:37:33.816Z,97.25
2018-06-23T06:40:02.484Z,97.42
2018-06-23T06:42:31.099Z,97.47
2018-06-23T06:44:59.711Z,97.40
2018-06-23T06:47:28.347Z,96.55
2018-06-23T06:49:56.942Z,95.86
2018-06-23T06:52:25.515Z,96.19
2018-06-23T06:54:54.179Z,96.46
2018-06-23T06:57:23.020Z,96.05
2018-06-23T06:59:51.633Z,95.19
2018-06-23T07:02:20.283Z,94.68
2018-06-23T07:04:49.014Z,94.43
2018-06-23T07:07:17.676Z,92.99
2018-06-23T07:09:46.502Z,93.23
2018-06-23T07:12:15.130Z,93.08
2018-06-23T07:14:43.967Z,93.57
2018-06-23T07:17:12.770Z,92.63
2018-06-23T07:19:41.499Z,90.57
2018-06-23T07:22:10.472Z,91.70
2018-06-23T07:24:39.281Z,90.81
2018-06-23T07:27:07.950Z,89.80
2018-06-23T07:29:36.580Z,85.51
2018-06-23T07:32:05.450Z,81.82
2018-06-23T07:34:34.213Z,80.51
2018-06-23T07:37:02.771Z,81.20
2018-06-23T07:39:31.590Z,80.78
2018-06-23T07:42:00.182Z,81.07
2018-06-23T07:44:28.782Z,78.91
2018-06-23T07:46:57.382Z,80.04
2018-06-23T07:49:26.191Z,79.92
2018-06-23T07:51:54.788Z,80.13
2018-06-23T07:54:24.039Z,79.22
2018-06-23T07:56:52.715Z,74.97
2018-06-23T07:59:21.286Z,73.24
2018-06-23T08:01:49.970Z,72.56
2018-06-23T08:04:18.563Z,74.25
2018-06-23T08:06:47.191Z,75.89
2018-06-23T08:09:15.851Z,76.31
2018-06-23T08:11:44.512Z,76.67
2018-06-23T08:14:13.482Z,74.08
2018-06-23T08:16:42.564Z,69.97
2018-06-23T08:19:11.145Z,66.93
2018-06-23T08:21:39.740Z,63.58
2018-06-23T08:24:08.487Z,62.58
2018-06-23T08:26:37.291Z,62.15
2018-06-23T08:29:05.850Z,60.65
2018-06-23T08:31:34.539Z,58.29
2018-06-23T08:34:03.253Z,59.52
2018-06-23T08:36:31.870Z,59.60
2018-06-23T08:39:00.507Z,57.36
2018-06-23T08:41:29.100Z,58.53
2018-06-23T08:43:57.963Z,57.61
2018-06-23T08:46:26.591Z,57.09
2018-06-23T08:48:55.188Z,55.38
2018-06-23T08:51:23.852Z,54.81
2018-06-23T08:53:52.483Z,55.98
2018-06-23T08:56:21.082Z,56.04
2018-06-23T08:58:49.787Z,53.51
2018-06-23T09:01:18.396Z,52.16
2018-06-23T09:03:47.002Z,51.68
2018-06-23T09:06:15.630Z,53.30
2018-06-23T09:08:44.235Z,50.64
2018-06-23T09:11:12.914Z,50.89
2018-06-23T09:13:42.258Z,50.34
2018-06-23T09:16:10.907Z,48.47
2018-06-23T09:18:40.355Z,49.36
2018-06-23T09:21:08.984Z,50.64
2018-06-23T09:23:37.626Z,53.55
2018-06-23T09:26:06.300Z,51.29
2018-06-23T09:28:34.900Z,49.00
2018-06-23T09:31:03.482Z,47.98
2018-06-23T09:33:32.090Z,47.44
2018-06-23T09:36:00.707Z,47.61
2018-06-23T09:38:29.596Z,48.68
2018-06-23T09:40:58.214Z,47.59
2018-06-23T09:43:26.798Z,51.32
2018-06-23T09:45:55.503Z,50.99
2018-06-23T09:48:24.064Z,48.13
2018-06-23T09:50:52.671Z,48.09
2018-06-23T09:53:22.588Z,47.64
2018-06-23T09:55:51.305Z,45.76
2018-06-23T09:58:20.118Z,47.23
2018-06-23T10:00:48.691Z,45.22
2018-06-23T10:03:17.428Z,44.18
2018-06-23T10:05:46.331Z,46.09
2018-06-23T10:08:14.946Z,46.28
2018-06-23T10:10:44.133Z,44.32
2018-06-23T10:13:12.815Z,46.32
2018-06-23T10:15:42.111Z,45.44
2018-06-23T10:18:10.739Z,46.36
2018-06-23T10:20:39.431Z,48.17
2018-06-23T10:23:08.138Z,43.97
2018-06-23T10:25:36.824Z,43.54
2018-06-23T10:28:05.760Z,42.22
2018-06-23T10:30:34.377Z,42.73
2018-06-23T10:33:03.259Z,40.87
2018-06-23T10:35:31.879Z,42.04
2018-06-23T10:38:00.627Z,42.19
2018-06-23T10:40:29.258Z,40.83
2018-06-23T10:42:57.866Z,40.31
2018-06-23T10:45:26.616Z,37.80
2018-06-23T10:47:55.249Z,40.47
2018-06-23T10:50:23.858Z,39.84
2018-06-23T10:52:52.476Z,38.21
2018-06-23T10:55:21.093Z,38.83
2018-06-23T10:57:49.721Z,39.16
2018-06-23T11:00:18.343Z,38.22
2018-06-23T11:02:46.970Z,38.07
2018-06-23T11:05:15.719Z,36.75
2018-06-23T11:07:44.395Z,36.67
2018-06-23T11:10:13.536Z,39.33
2018-06-23T11:12:42.137Z,39.99
2018-06-23T11:15:10.824Z,38.58
2018-06-23T11:17:39.811Z,39.41
2018-06-23T11:20:08.450Z,39.08
2018-06-23T11:22:37.045Z,39.32
2018-06-23T11:25:06.089Z,38.37
2018-06-23T11:27:34.731Z,39.22
2018-06-23T11:30:03.492Z,40.60
2018-06-23T11:32:32.061Z,40.95
2018-06-23T11:35:00.679Z,40.04
2018-06-23T11:37:29.283Z,39.81
2018-06-23T11:39:57.970Z,40.00
2018-06-23T11:42:26.641Z,40.61
2018-06-23T11:44:55.320Z,40.22
2018-06-23T11:47:24.173Z,39.79
2018-06-23T11:49:53.042Z,39.12
2018-06-23T11:52:21.665Z,38.45
2018-06-23T11:54:50.239Z,39.84
2018-06-23T11:57:18.950Z,39.96
2018-06-23T11:59:47.537Z,38.82
2018-06-23T12:02:16.256Z,39.01
2018-06-23T12:04:44.838Z,39.46
2018-06-23T12:07:13.436Z,40.06
2018-06-23T12:09:42.032Z,38.97
2018-06-23T12:12:10.658Z,40.46
2018-06-23T12:14:39.261Z,39.17
2018-06-23T12:17:07.837Z,39.67
2018-06-23T12:19:36.463Z,39.77
2018-06-23T12:22:05.100Z,39.44
2018-06-23T12:24:33.702Z,39.20
2018-06-23T12:27:02.288Z,39.76
2018-06-23T12:29:31.799Z,40.39
2018-06-23T12:32:01.212Z,39.29
2018-06-23T12:34:29.867Z,40.84
2018-06-23T12:36:58.510Z,40.67
2018-06-23T12:39:27.581Z,40.98
2018-06-23T12:41:56.416Z,40.57
2018-06-23T12:44:25.096Z,40.54
2018-06-23T12:46:54.234Z,40.10
2018-06-23T12:49:22.822Z,40.81
2018-06-23T12:51:51.567Z,40.32
2018-06-23T12:54:20.155Z,40.56
2018-06-23T12:56:48.808Z,40.42
2018-06-23T12:59:17.611Z,40.88
2018-06-23T13:01:46.271Z,39.53
2018-06-23T13:04:14.934Z,39.42
2018-06-23T13:06:43.883Z,38.38
2018-06-23T13:09:13.118Z,38.42
2018-06-23T13:11:41.808Z,35.96
2018-06-23T13:14:10.689Z,35.32
2018-06-23T13:16:39.328Z,34.67
2018-06-23T13:19:07.915Z,33.77
2018-06-23T13:21:36.615Z,34.42
2018-06-23T13:24:05.333Z,33.08
2018-06-23T13:26:34.035Z,32.24
2018-06-23T13:29:02.791Z,32.38
2018-06-23T13:31:31.786Z,32.91
2018-06-23T13:34:01.512Z,35.03
2018-06-23T13:36:30.131Z,39.11
2018-06-23T13:38:58.896Z,39.42
2018-06-23T13:41:27.550Z,41.40
2018-06-23T13:43:56.132Z,41.58
2018-06-23T13:46:24.843Z,41.25
2018-06-23T13:48:53.444Z,41.84
2018-06-23T13:51:22.067Z,42.25
2018-06-23T13:53:50.668Z,42.49
2018-06-23T13:56:19.274Z,42.23
2018-06-23T13:58:47.978Z,42.73
2018-06-23T14:01:16.601Z,41.62
2018-06-23T14:03:45.296Z,42.17
2018-06-23T14:06:14.012Z,41.72
2018-06-23T14:08:42.603Z,42.39
2018-06-23T14:11:11.282Z,42.95
2018-06-23T14:13:39.952Z,42.07
2018-06-23T14:16:08.605Z,42.43
2018-06-23T14:18:37.208Z,42.80
2018-06-23T14:21:05.875Z,43.07
2018-06-23T14:23:34.570Z,42.43
2018-06-23T14:26:03.250Z,44.27
2018-06-23T14:28:31.862Z,43.17
2018-06-23T14:31:00.534Z,42.49
2018-06-23T14:33:29.120Z,43.23
2018-06-23T14:35:58.707Z,43.05
2018-06-23T14:38:27.328Z,42.69
2018-06-23T14:40:55.991Z,43.65
2018-06-23T14:43:24.593Z,43.03
2018-06-23T14:45:53.226Z,42.89
2018-06-23T14:48:21.870Z,44.07
2018-06-23T14:50:50.518Z,43.64
2018-06-23T14:53:19.099Z,43.38
2018-06-23T14:55:47.930Z,43.42
2018-06-23T14:58:16.596Z,43.19
2018-06-23T15:00:45.211Z,43.86
2018-06-23T15:03:14.013Z,44.43
2018-06-23T15:05:42.597Z,43.85
2018-06-23T15:08:23.224Z,43.91
2018-06-23T15:11:02.955Z,44.26
2018-06-23T15:13:31.605Z,43.84
2018-06-23T15:16:00.248Z,43.26
2018-06-23T15:18:28.877Z,43.31
2018-06-23T15:20:57.691Z,44.35
2018-06-23T15:23:26.313Z,44.10
2018-06-23T15:25:54.924Z,44.70
2018-06-23T15:28:23.606Z,44.47
2018-06-23T15:30:52.193Z,43.72
2018-06-23T15:33:21.110Z,44.60
2018-06-23T15:35:49.718Z,44.02
2018-06-23T15:38:18.363Z,45.15
2018-06-23T15:40:46.921Z,44.18
2018-06-23T15:43:15.669Z,44.95
2018-06-23T15:45:44.315Z,43.93
2018-06-23T15:48:12.877Z,44.10
2018-06-23T15:50:41.483Z,44.16
2018-06-23T15:53:10.189Z,45.11
2018-06-23T15:55:39.124Z,43.71
2018-06-23T15:58:08.020Z,44.21
2018-06-23T16:00:37.453Z,45.12
2018-06-23T16:03:06.282Z,45.56
2018-06-23T16:05:35.479Z,44.57
2018-06-23T16:08:04.807Z,45.31
2018-06-23T16:10:34.432Z,44.67
2018-06-23T16:13:03.109Z,45.28
2018-06-23T16:15:31.806Z,44.46
2018-06-23T16:18:00.432Z,45.29
2018-06-23T16:20:29.428Z,44.68
2018-06-23T16:22:58.466Z,44.06
2018-06-23T16:25:28.027Z,44.97
2018-06-23T16:27:57.129Z,45.39
2018-06-23T16:30:26.650Z,45.35
2018-06-23T16:32:55.495Z,45.02
2018-06-23T16:35:24.489Z,44.56
2018-06-23T16:37:53.095Z,45.49
2018-06-23T16:40:21.972Z,45.79
2018-06-23T16:42:50.627Z,45.90
2018-06-23T16:45:19.658Z,46.00
2018-06-23T16:47:48.879Z,46.68
2018-06-23T16:50:17.756Z,46.21
2018-06-23T16:52:46.997Z,46.63
2018-06-23T16:55:15.779Z,46.53
2018-06-23T16:57:44.398Z,46.08
2018-06-23T17:00:13.230Z,45.96
2018-06-23T17:02:43.980Z,46.10
2018-06-23T17:05:12.664Z,46.90
2018-06-23T17:07:41.451Z,46.29
2018-06-23T17:10:10.200Z,46.86
2018-06-23T17:12:39.007Z,47.21
2018-06-23T17:15:07.730Z,46.49
2018-06-23T17:17:36.368Z,46.78
2018-06-23T17:20:05.190Z,47.33
2018-06-23T17:22:34.557Z,46.83
2018-06-23T17:25:03.268Z,48.22
2018-06-23T17:27:31.950Z,47.13
2018-06-23T17:30:00.867Z,47.37
2018-06-23T17:32:29.479Z,47.53
2018-06-23T17:34:58.428Z,47.71
2018-06-23T17:37:27.564Z,48.27
2018-06-23T17:39:56.256Z,48.57
2018-06-23T17:42:24.864Z,48.64
2018-06-23T17:44:53.556Z,48.93
2018-06-23T17:47:22.229Z,48.79
2018-06-23T17:49:50.948Z,49.06
2018-06-23T17:52:19.742Z,48.84
2018-06-23T17:54:48.486Z,49.67
2018-06-23T17:57:17.326Z,49.98
2018-06-23T17:59:46.242Z,50.05
2018-06-23T18:02:14.976Z,49.61
2018-06-23T18:04:43.622Z,50.14
2018-06-23T18:07:12.413Z,50.70
2018-06-23T18:09:41.094Z,50.68
2018-06-23T18:12:10.190Z,50.39
2018-06-23T18:14:39.356Z,50.52
2018-06-23T18:17:08.099Z,51.08
2018-06-23T18:19:36.820Z,51.39
2018-06-23T18:22:05.615Z,51.58
2018-06-23T18:24:34.367Z,50.88
2018-06-23T18:27:03.247Z,52.15
2018-06-23T18:29:31.985Z,52.52
2018-06-23T18:32:00.717Z,52.45
2018-06-23T18:34:30.398Z,52.70
2018-06-23T18:36:59.163Z,52.74
2018-06-23T18:39:28.038Z,53.16
2018-06-23T18:41:56.882Z,52.89
2018-06-23T18:44:25.579Z,54.84
2018-06-23T18:46:54.800Z,53.93
2018-06-23T18:49:23.554Z,53.83
2018-06-23T18:51:52.299Z,53.64
2018-06-23T18:54:20.949Z,53.88
2018-06-23T18:56:49.627Z,53.65
2018-06-23T18:59:18.339Z,54.54
2018-06-23T19:01:47.348Z,54.45
2018-06-23T19:04:16.507Z,54.76
2018-06-23T19:06:45.333Z,55.79
2018-06-23T19:09:14.163Z,54.93
2018-06-23T19:11:42.846Z,55.64
2018-06-23T19:14:11.639Z,55.94
2018-06-23T19:16:40.354Z,55.21
2018-06-23T19:19:09.089Z,55.25
2018-06-23T19:21:37.800Z,55.99
2018-06-23T19:24:06.875Z,55.99
2018-06-23T19:26:35.772Z,55.74
2018-06-23T19:29:04.841Z,56.68
2018-06-23T19:31:33.728Z,56.96
2018-06-23T19:34:03.193Z,56.60
2018-06-23T19:36:32.044Z,55.98
2018-06-23T19:39:00.818Z,56.89
2018-06-23T19:41:30.395Z,56.91
2018-06-23T19:43:59.195Z,56.33
2018-06-23T19:46:27.788Z,56.41
2018-06-23T19:48:56.698Z,56.44
2018-06-23T19:51:25.711Z,56.71
2018-06-23T19:53:54.533Z,56.58
2018-06-23T19:56:23.227Z,55.83
2018-06-23T19:58:51.849Z,56.20
2018-06-23T20:01:20.492Z,55.86
2018-06-23T20:03:49.195Z,56.45
2018-06-23T20:06:17.806Z,56.64
2018-06-23T20:08:46.491Z,55.89
2018-06-23T20:11:15.159Z,56.44
2018-06-23T20:13:43.719Z,57.37
2018-06-23T20:16:12.430Z,56.95
2018-06-23T20:18:41.111Z,57.31
2018-06-23T20:21:09.769Z,57.89
2018-06-23T20:23:38.676Z,57.97
2018-06-23T20:26:07.292Z,58.13
2018-06-23T20:28:35.896Z,58.36
2018-06-23T20:31:04.907Z,59.04
2018-06-23T20:33:33.576Z,57.87
2018-06-23T20:36:02.250Z,58.70
2018-06-23T20:38:30.923Z,58.79
2018-06-23T20:40:59.507Z,59.54
2018-06-23T20:43:28.134Z,59.19
2018-06-23T20:45:57.562Z,59.56
2018-06-23T20:48:26.572Z,59.27
2018-06-23T20:50:55.379Z,59.70
2018-06-23T20:53:24.498Z,60.54
2018-06-23T20:55:53.420Z,59.63
2018-06-23T20:58:22.639Z,60.39
2018-06-23T21:00:51.259Z,59.67
2018-06-23T21:03:20.002Z,59.72
2018-06-23T21:05:48.638Z,60.33
2018-06-23T21:08:17.312Z,60.35
2018-06-23T21:10:47.296Z,60.29
2018-06-23T21:13:15.902Z,60.58
2018-06-23T21:15:44.530Z,60.76
2018-06-23T21:18:13.558Z,60.61
2018-06-23T21:20:42.214Z,60.84
2018-06-23T21:23:11.179Z,61.40
2018-06-23T21:25:39.798Z,60.75
2018-06-23T21:28:08.498Z,60.91
2018-06-23T21:30:37.088Z,61.34
2018-06-23T21:33:05.731Z,61.55
2018-06-23T21:35:34.375Z,61.27
2018-06-23T21:38:03.361Z,61.44
2018-06-23T21:40:32.078Z,61.87
2018-06-23T21:43:00.715Z,61.78
2018-06-23T21:45:29.719Z,61.92
2018-06-23T21:47:58.351Z,61.91
2018-06-23T21:50:26.961Z,61.85
2018-06-23T21:52:55.574Z,62.15
2018-06-23T21:55:24.154Z,61.79
2018-06-23T21:57:52.746Z,61.78
2018-06-23T22:00:30.885Z,61.87
2018-06-23T22:03:00.599Z,62.16
2018-06-23T22:05:29.642Z,62.50
2018-06-23T22:07:58.352Z,62.30
2018-06-23T22:10:27.857Z,62.15
2018-06-23T22:12:56.601Z,62.15
2018-06-23T22:15:25.579Z,62.24
2018-06-23T22:17:54.242Z,63.24
2018-06-23T22:20:22.831Z,62.96
2018-06-23T22:22:52.403Z,63.05
2018-06-23T22:25:21.843Z,63.11
2018-06-23T22:27:50.501Z,63.08
2018-06-23T22:30:19.667Z,62.59
2018-06-23T22:32:48.284Z,63.09
2018-06-23T22:35:16.914Z,62.56
2018-06-23T22:37:45.555Z,62.91
2018-06-23T22:40:14.178Z,62.76
2018-06-23T22:42:42.816Z,63.22
2018-06-23T22:45:11.539Z,63.18
2018-06-23T22:47:40.118Z,63.42
2018-06-23T22:50:09.585Z,64.07
2018-06-23T22:52:38.495Z,64.57
2018-06-23T22:55:07.991Z,64.06
2018-06-23T22:57:36.684Z,63.95
2018-06-23T23:00:09.446Z,63.79
2018-06-23T23:02:38.103Z,63.66
2018-06-23T23:05:07.323Z,64.28
2018-06-23T23:07:36.003Z,64.49
2018-06-23T23:10:04.955Z,64.56
2018-06-23T23:12:33.551Z,65.55
2018-06-23T23:15:02.152Z,65.43
2018-06-23T23:17:30.972Z,66.05
2018-06-23T23:19:59.570Z,65.73
2018-06-23T23:22:28.226Z,66.41
2018-06-23T23:24:56.918Z,68.02
2018-06-23T23:27:25.555Z,68.51
2018-06-23T23:29:54.225Z,68.55
2018-06-23T23:32:22.882Z,68.58
2018-06-23T23:34:51.884Z,68.94
2018-06-23T23:37:20.528Z,68.55
2018-06-23T23:39:49.470Z,69.49
2018-06-23T23:42:18.064Z,68.96
2018-06-23T23:44:46.662Z,69.58
2018-06-23T23:47:15.254Z,69.27
2018-06-23T23:49:43.886Z,68.69
2018-06-23T23:52:12.442Z,68.20
2018-06-23T23:54:41.050Z,68.07
2018-06-23T23:57:09.702Z,69.12
2018-06-23T23:59:38.335Z,68.91
